AirNav   Air Wisconsin Up To $57,000 Bonus
 
 596 users online  

9II4 Cruzan Field Airport
Arcadia, Indiana, USA

GOING TO ARCADIA?


FAA INFORMATION EFFECTIVE 09 SEPTEMBER 2021

Location

FAA Identifier: 9II4
Lat/Long: 40-10-21.0000N 085-56-41.0000W
40-10.350000N 085-56.683333W
40.1725000,-85.9447222
(estimated)
Elevation: 845 ft. / 258 m (estimated)
Variation: 03W (1990)
From city: 4 miles E of ARCADIA, IN
Time zone: UTC -4 (UTC -5 during Standard Time)
Zip code: 46034

Airport Operations

Airport use: Private use. Permission required prior to landing
Activation date: 11/1992
Control tower: no
ARTCC: CHICAGO CENTER
FSS: TERRE HAUTE FLIGHT SERVICE STATION
Attendance: UNATNDD
Wind indicator: yes
Segmented circle: no

Airport Communications

WX AWOS-3 at UMP (15 nm S): 119.375 (317-842-3911)
WX AWOS-3 at AID (16 nm E): 128.55 (765-442-1245)
WX AWOS-3PT at TYQ (16 nm SW): 120.725 (317-769-3154)
WX AWOS-3 at MQJ (20 nm S): 124.175 (317-335-3037)

Nearby radio navigation aids

VOR radial/distance  VOR name  Freq  Var
OKKr171/21.9KOKOMO VORTAC113.5005W
MZZr215/22.8MARION VOR/DME108.6003W
MIEr264/25.5MUNCIE VOR/DME114.4003W
VHPr041/29.0BRICKYARD VORTAC116.3001E
GUSr164/29.9GRISSOM VORTAC108.4502W
SHBr349/32.9SHELBYVILLE VOR/DME112.0001E

 
NDB name  Hdg/Dist  Freq  Var  ID
METROPOLITAN022/14.933803WUMP ..- -- .--.
NEW CASTLE307/33.738506WUWL ..- .-- .-..

Airport Services

Runway Information

Runway 9/27

Dimensions: 3300 x 70 ft. / 1006 x 21 m
Surface: turf
RUNWAY 9  RUNWAY 27
Latitude: 40-10.350000N
Longitude: 085-56.683333W
Elevation: 845.0 ft.
Traffic pattern: leftleft
Displaced threshold: no560 ft.
Obstructions: none35 ft. bldg, 140 ft. from runway

Airport Ownership and Management from official FAA records

Ownership: Privately-owned
Owner: ROBERT E. CRUZAN II
26410 S.R. 213
ARCADIA, IN 46030
Phone 317-439-0800
Manager: ROBERT E. CRUZAN II
26410 S.R. 213
ARCADIA, IN 46030
Phone 317-439-0800

Airport Operational Statistics

Aircraft based on the field: 4
Single engine airplanes: 1
Ultralights: 3
    

Additional Remarks

FOR CD CTC CHICAGO ARTCC AT 630-906-8921.

Instrument Procedures

There are no published instrument procedures at 9II4.

Some nearby airports with instrument procedures:

5I4 - Sheridan Airport (12 nm W)
KUMP - Indianapolis Metro Airport (15 nm S)
KAID - Anderson Municipal Airport-Darlington Field (16 nm E)
KTYQ - Indianapolis Executive Airport (16 nm SW)
KMQJ - Indianapolis Regional Airport (20 nm S)
 
Loc | Ops | Rwys | IFR | FBO | Links
Com | Nav | Svcs | Stats | Notes
Area around 9II4 (Cruzan Field Airport)
 
Road maps at: MapQuest Bing Google
 
Aerial photo
No photo
 
Sectional chart

 
Airport distance calculator
Flying to Cruzan Field Airport? Find the distance to fly.

From to 9II4

Sunrise and sunset
Times for 18-Sep-2021
 Local
(UTC-4)
 Zulu
(UTC)
Morning civil twilight07:0111:01
Sunrise07:2811:28
Sunset19:4723:47
Evening civil twilight20:1500:15

Current date and time
Zulu (UTC)  18-Sep-2021 06:01:51
Local (UTC-4)  18-Sep-2021 02:01:51
 
METAR
KAID 
15nm E 
180555Z AUTO 00000KT 10SM CLR 19/17 A3014 RMK AO2 T01900168 10238 20190 402990158
KTYQ 
16nm SW 
180555Z AUTO 00000KT 10SM CLR 17/17 A3014 RMK AO2 T01700165 10222 20170
KMQJ 
20nm S 
180555Z AUTO 00000KT 10SM CLR 19/19 A3014 RMK AO1
KOKK 
22nm N 
180556Z AUTO 00000KT 10SM CLR 18/18 A3013 RMK AO2 SLP198 6//// T01780178 10256 20178 51003 PNO $
KMZZ 
23nm NE 
180555Z AUTO 00000KT 7SM CLR A3014 RMK AO2
KMIE 
25nm E 
180553Z AUTO 00000KT 10SM FEW050 21/18 A3013 RMK AO2 SLP193 T02060178 10261 20200 51003
KEYE 
26nm SW 
180553Z AUTO 00000KT 10SM SCT060 23/21 A3012 RMK AO2 SLP192 T02280206 10278 20228 51002
KFKR 
29nm W 
180555Z AUTO 00000KT 10SM FEW045 OVC050 19/18 A3012 RMK AO2
KGUS 
29nm N 
180556Z AUTO 21003KT 10SM CLR 20/17 A3012 RMK AO2 SLP197 T01960174 10255 20192 52005 $
TAF
KGUS 
29nm N 
171300Z 1713/1819 VRB06KT 9999 SCT035 QNH3010INS BECMG 1717/1718 21009KT 9999 BKN035 QNH3002INS BECMG 1723/1724 VRB06KT 9999 SCT040 QNH3003INS BECMG 1811/1812 04007KT 9999 SCT020 BKN030 QNH3008INS TX31/1720Z TN17/1811Z
KIND 
31nm SW 
171721Z 1718/1824 VRB04KT P6SM BKN040 FM180000 VRB02KT P6SM FEW250 FM180900 00000KT 4SM BR MIFG FEW250 FM181400 06003KT P6SM SCT050
NOTAMs
Click for the latest NOTAMs
NOTAMs are issued by the DoD/FAA and will open in a separate window not controlled by AirNav.

 

 
 

Would you like to see your business listed on this page?

 If your business provides an interesting product or service to pilots, flight crews, aircraft, or users of the Cruzan Field Airport, you should consider listing it here.  To start the listing process, click on the button below
 
Add a business
 

Other Pages about Cruzan Field Airport

Update a link
 
Copyright © AirNav, LLC. All rights reserved. Privacy Policy  Contact